Hovedside
METAR-TAF:

METAR-TAF

Lufthavner :

Kärdla lufthavn

Kärdla, Estland

breddegrad: 58-59N, lengdegrad: 022-49E, høyde over havet: 5 m

Gjeldene værobservasjon

Denne rapporten ble laget for 5 timer og 4 minutter siden, klokken 14:50 UTC
Vind 4 kt fra Øst-nordøst
Temperatur 21°C
Luftfuktighet 60%
Trykk 1019 hPa
Sikt 10 km eller mer
Få skyer i en høyde av 4000 ft

METAR: EEKA 161450Z 06004KT 9999 FEW040 21/13 Q1019

Tid: 22:54 (19:54 UTC)

Varsel

Denne rapporten ble laget for 7 timer og 54 minutter siden, klokken 12:00 UTC
Varsel gyldig fra 16. klokken 13 UTC til 16. klokken 19 UTC
Vind 7 kt fra Nordøst
Sikt 10 km eller mer
Spredte skyer i en høyde av 3000 ft

TAF: EEKA 161200Z 1613/1619 05007KT 9999 SCT030

Værobservasjoner og værvarsel for over 4000 flyplasser (METAR- og TAF-rapporter).

Tilgjengelige stasjoner er representert av de røde og gule prikkene på kartet.

Hold musepekeren over prikken for å se navnet på stasjonen.

Klikk så for å se værobservasjoner og -varsler.

For å forandre kartet kan du klikke på den grønne knappen med svart kryss for å zoome inn, på den grønne knappen med strek for å zoome ut, eller på de grønne pilene for å se tilstøtende kart.


METAR-TAF: